Time,TemperatureF,DewpointF,PressureIn,WindDirection,WindDirectionDegrees,WindSpeedMPH,WindSpeedGustMPH,Humidity,HourlyPrecipIn,Conditions,Clouds,dailyrainin,SolarRadiationWatts/m^2,SoftwareType,DateUTC
2013-01-09 00:07:00,25.5,24.0,30.36,SW,236,0.0,-999.0,93,-99.99,,,0.00,0,weatherlink.com 1.10,2013-01-09 05:07:00,
2013-01-09 00:22:00,24.9,23.0,30.36,SW,236,0.0,-999.0,93,-99.99,,,0.00,0,weatherlink.com 1.10,2013-01-09 05:22:00,
2013-01-09 00:37:00,24.3,23.0,30.37,SW,236,0.0,-999.0,93,-99.99,,,0.00,0,weatherlink.com 1.10,2013-01-09 05:37:00,
2013-01-09 00:52:00,24.1,22.0,30.37,SW,236,0.0,-999.0,93,-99.99,,,0.00,0,weatherlink.com 1.10,2013-01-09 05:52:00,
2013-01-09 01:07:00,23.9,23.0,30.36,SW,236,0.0,-999.0,94,-99.99,,,0.00,0,weatherlink.com 1.10,2013-01-09 06:07:00,
2013-01-09 01:22:00,23.5,22.0,30.36,SW,236,0.0,-999.0,93,-99.99,,,0.00,0,weatherlink.com 1.10,2013-01-09 06:22:00,
2013-01-09 01:37:00,23.3,22.0,30.36,SW,236,0.0,-999.0,94,-99.99,,,0.00,0,weatherlink.com 1.10,2013-01-09 06:37:00,
2013-01-09 01:52:00,23.0,21.0,30.36,SW,236,0.0,-999.0,93,-99.99,,,0.00,0,weatherlink.com 1.10,2013-01-09 06:52:00,
2013-01-09 02:07:00,22.6,21.0,30.36,SW,236,0.0,-999.0,93,-99.99,,,0.00,0,weatherlink.com 1.10,2013-01-09 07:07:00,
2013-01-09 02:22:00,22.2,21.0,30.37,SW,236,0.0,-999.0,93,-99.99,,,0.00,0,weatherlink.com 1.10,2013-01-09 07:22:00,
2013-01-09 02:37:00,21.9,20.0,30.37,SW,236,0.0,-999.0,93,-99.99,,,0.00,0,weatherlink.com 1.10,2013-01-09 07:37:00,
2013-01-09 02:52:00,21.8,20.0,30.38,SW,236,0.0,-999.0,94,-99.99,,,0.00,0,weatherlink.com 1.10,2013-01-09 07:52:00,
2013-01-09 03:07:00,21.4,20.0,30.38,SW,236,0.0,-999.0,93,-99.99,,,0.00,0,weatherlink.com 1.10,2013-01-09 08:07:00,
2013-01-09 03:22:00,21.2,20.0,30.38,SW,236,0.0,-999.0,94,-99.99,,,0.00,0,weatherlink.com 1.10,2013-01-09 08:22:00,
2013-01-09 03:37:00,20.8,19.0,30.38,SW,236,0.0,-999.0,93,-99.99,,,0.00,0,weatherlink.com 1.10,2013-01-09 08:37:00,
2013-01-09 03:52:00,20.4,19.0,30.37,SW,236,0.0,-999.0,93,-99.99,,,0.00,0,weatherlink.com 1.10,2013-01-09 08:52:00,
2013-01-09 04:07:00,20.0,18.0,30.36,SW,236,0.0,-999.0,93,-99.99,,,0.00,0,weatherlink.com 1.10,2013-01-09 09:07:00,
2013-01-09 04:22:00,19.7,18.0,30.36,SW,236,0.0,-999.0,93,-99.99,,,0.00,0,weatherlink.com 1.10,2013-01-09 09:22:00,
2013-01-09 04:37:00,19.3,18.0,30.36,SW,236,0.0,-999.0,93,-99.99,,,0.00,0,weatherlink.com 1.10,2013-01-09 09:37:00,
2013-01-09 04:52:00,19.2,18.0,30.36,SW,236,0.0,-999.0,93,-99.99,,,0.00,0,weatherlink.com 1.10,2013-01-09 09:52:00,
2013-01-09 05:07:00,19.1,17.0,30.36,SW,236,0.0,-999.0,93,-99.99,,,0.00,0,weatherlink.com 1.10,2013-01-09 10:07:00,
2013-01-09 05:22:00,18.9,17.0,30.36,SW,236,0.0,-999.0,93,-99.99,,,0.00,0,weatherlink.com 1.10,2013-01-09 10:22:00,
2013-01-09 05:37:00,18.8,17.0,30.36,SW,236,0.0,-999.0,93,-99.99,,,0.00,0,weatherlink.com 1.10,2013-01-09 10:37:00,
2013-01-09 05:52:00,18.6,17.0,30.36,SW,236,0.0,-999.0,93,-99.99,,,0.00,0,weatherlink.com 1.10,2013-01-09 10:52:00,
2013-01-09 06:07:00,18.7,17.0,30.36,SW,236,0.0,-999.0,93,-99.99,,,0.00,0,weatherlink.com 1.10,2013-01-09 11:07:00,
2013-01-09 06:22:00,18.5,17.0,30.36,SW,236,0.0,-999.0,93,-99.99,,,0.00,0,weatherlink.com 1.10,2013-01-09 11:22:00,
2013-01-09 06:37:00,18.6,17.0,30.36,SW,236,0.0,-999.0,94,-99.99,,,0.00,0,weatherlink.com 1.10,2013-01-09 11:37:00,
2013-01-09 06:52:00,18.7,17.0,30.36,SW,236,0.0,-999.0,93,-99.99,,,0.00,0,weatherlink.com 1.10,2013-01-09 11:52:00,
2013-01-09 07:07:00,18.6,17.0,30.37,SW,236,0.0,-999.0,93,-99.99,,,0.00,0,weatherlink.com 1.10,2013-01-09 12:07:00,
2013-01-09 07:22:00,18.8,17.0,30.37,SW,236,0.0,-999.0,94,-99.99,,,0.00,11,weatherlink.com 1.10,2013-01-09 12:22:00,
2013-01-09 07:37:00,19.0,17.0,30.38,SW,236,0.0,-999.0,93,-99.99,,,0.00,25,weatherlink.com 1.10,2013-01-09 12:37:00,
2013-01-09 07:52:00,19.4,18.0,30.38,SW,236,0.0,-999.0,93,-99.99,,,0.00,47,weatherlink.com 1.10,2013-01-09 12:52:00,
2013-01-09 08:07:00,20.2,19.0,30.38,SW,236,0.0,-999.0,94,-99.99,,,0.00,51,weatherlink.com 1.10,2013-01-09 13:07:00,
2013-01-09 08:22:00,21.7,20.0,30.37,SW,236,0.0,-999.0,94,-99.99,,,0.00,81,weatherlink.com 1.10,2013-01-09 13:22:00,
2013-01-09 08:37:00,22.9,22.0,30.37,SW,236,0.0,-999.0,94,-99.99,,,0.00,107,weatherlink.com 1.10,2013-01-09 13:37:00,
2013-01-09 08:52:00,24.1,22.0,30.37,SW,236,0.0,-999.0,93,-99.99,,,0.00,142,weatherlink.com 1.10,2013-01-09 13:52:00,
2013-01-09 09:07:00,25.2,24.0,30.37,SW,236,0.0,-999.0,93,-99.99,,,0.00,130,weatherlink.com 1.10,2013-01-09 14:07:00,
2013-01-09 09:22:00,26.4,25.0,30.36,SW,236,0.0,-999.0,94,-99.99,,,0.00,151,weatherlink.com 1.10,2013-01-09 14:22:00,
2013-01-09 09:37:00,27.7,26.0,30.36,SW,236,0.0,-999.0,93,-99.99,,,0.00,167,weatherlink.com 1.10,2013-01-09 14:37:00,
2013-01-09 09:52:00,28.8,27.0,30.36,SW,236,0.0,-999.0,92,-99.99,,,0.00,165,weatherlink.com 1.10,2013-01-09 14:52:00,
2013-01-09 10:07:00,29.4,27.0,30.34,SW,236,0.0,-999.0,91,-99.99,,,0.00,172,weatherlink.com 1.10,2013-01-09 15:07:00,
2013-01-09 10:22:00,30.3,28.0,30.34,SW,236,0.0,-999.0,90,-99.99,,,0.00,181,weatherlink.com 1.10,2013-01-09 15:22:00,
2013-01-09 10:37:00,31.2,28.0,30.32,SW,236,2.0,-999.0,89,-99.99,,,0.00,174,weatherlink.com 1.10,2013-01-09 15:37:00,
2013-01-09 10:52:00,32.1,29.0,30.30,SW,236,0.0,-999.0,89,-99.99,,,0.00,181,weatherlink.com 1.10,2013-01-09 15:52:00,
2013-01-09 11:07:00,33.4,30.0,30.29,SW,236,0.0,-999.0,86,-99.99,,,0.00,188,weatherlink.com 1.10,2013-01-09 16:07:00,
2013-01-09 11:22:00,34.6,30.0,30.26,SW,236,0.0,-999.0,84,-99.99,,,0.00,172,weatherlink.com 1.10,2013-01-09 16:22:00,
2013-01-09 11:37:00,35.5,31.0,30.26,West,265,0.0,-999.0,83,-99.99,,,0.00,155,weatherlink.com 1.10,2013-01-09 16:37:00,
2013-01-09 11:52:00,36.8,32.0,30.27,West,265,0.0,-999.0,81,-99.99,,,0.00,167,weatherlink.com 1.10,2013-01-09 16:52:00,
2013-01-09 12:07:00,38.4,31.0,30.25,SW,215,0.0,-999.0,76,-99.99,,,0.00,216,weatherlink.com 1.10,2013-01-09 17:07:00,
2013-01-09 12:22:00,39.8,31.0,30.24,WSW,240,2.0,-999.0,72,-99.99,,,0.00,202,weatherlink.com 1.10,2013-01-09 17:22:00,
2013-01-09 12:37:00,40.5,32.0,30.22,South,175,4.0,-999.0,71,-99.99,,,0.00,232,weatherlink.com 1.10,2013-01-09 17:37:00,
2013-01-09 12:52:00,41.3,32.0,30.23,SSW,205,3.0,-999.0,70,-99.99,,,0.00,162,weatherlink.com 1.10,2013-01-09 17:52:00,
2013-01-09 13:07:00,41.6,32.0,30.24,SSW,213,0.0,-999.0,70,-99.99,,,0.00,70,weatherlink.com 1.10,2013-01-09 18:07:00,
2013-01-09 13:22:00,41.4,32.0,30.23,SSE,165,0.0,-999.0,70,-99.99,,,0.00,67,weatherlink.com 1.10,2013-01-09 18:22:00,
2013-01-09 13:37:00,41.4,33.0,30.23,SSE,165,0.0,-999.0,71,-99.99,,,0.00,88,weatherlink.com 1.10,2013-01-09 18:37:00,
2013-01-09 13:52:00,41.5,33.0,30.20,South,169,1.0,-999.0,72,-99.99,,,0.00,69,weatherlink.com 1.10,2013-01-09 18:52:00,
2013-01-09 14:07:00,41.6,34.0,30.18,South,183,3.0,-999.0,73,-99.99,,,0.00,47,weatherlink.com 1.10,2013-01-09 19:07:00,
2013-01-09 14:22:00,41.6,34.0,30.16,South,189,3.0,-999.0,75,-99.99,,,0.00,33,weatherlink.com 1.10,2013-01-09 19:22:00,
2013-01-09 14:37:00,41.5,35.0,30.15,SSW,200,3.0,-999.0,77,-99.99,,,0.00,26,weatherlink.com 1.10,2013-01-09 19:37:00,
2013-01-09 14:52:00,40.9,35.0,30.15,West,280,3.0,-999.0,79,-99.99,,,0.00,26,weatherlink.com 1.10,2013-01-09 19:52:00,
2013-01-09 15:07:00,40.6,35.0,30.14,WSW,246,2.0,-999.0,79,-99.99,,,0.00,23,weatherlink.com 1.10,2013-01-09 20:07:00,
2013-01-09 15:22:00,40.3,35.0,30.11,South,191,3.0,-999.0,80,-99.99,,,0.00,11,weatherlink.com 1.10,2013-01-09 20:22:00,
2013-01-09 15:37:00,40.2,35.0,30.11,South,184,3.0,-999.0,80,-99.99,,,0.00,21,weatherlink.com 1.10,2013-01-09 20:37:00,
2013-01-09 15:52:00,40.6,35.0,30.12,SSW,198,3.0,-999.0,80,-99.99,,,0.00,7,weatherlink.com 1.10,2013-01-09 20:52:00,
2013-01-09 16:07:00,40.9,35.0,30.10,SW,219,3.0,-999.0,80,-99.99,,,0.00,12,weatherlink.com 1.10,2013-01-09 21:07:00,
2013-01-09 16:22:00,40.9,35.0,30.11,SW,229,1.0,-999.0,80,-99.99,,,0.00,5,weatherlink.com 1.10,2013-01-09 21:22:00,
2013-01-09 16:37:00,40.9,35.0,30.12,WSW,252,1.0,-999.0,80,-99.99,,,0.00,0,weatherlink.com 1.10,2013-01-09 21:37:00,
2013-01-09 16:52:00,41.1,35.0,30.13,SSW,201,1.0,-999.0,80,-99.99,,,0.00,0,weatherlink.com 1.10,2013-01-09 21:52:00,
2013-01-09 17:07:00,41.4,36.0,30.12,SSW,194,7.0,-999.0,80,-99.99,,,0.00,0,weatherlink.com 1.10,2013-01-09 22:07:00,
2013-01-09 17:22:00,41.5,36.0,30.11,SSW,201,3.0,-999.0,80,-99.99,,,0.00,0,weatherlink.com 1.10,2013-01-09 22:22:00,
2013-01-09 17:37:00,41.2,36.0,30.11,SSW,202,4.0,-999.0,81,-99.99,,,0.00,0,weatherlink.com 1.10,2013-01-09 22:37:00,
2013-01-09 17:52:00,40.9,36.0,30.10,SSW,212,5.0,-999.0,81,-99.99,,,0.00,0,weatherlink.com 1.10,2013-01-09 22:52:00,
2013-01-09 18:07:00,40.9,36.0,30.11,SW,219,1.0,-999.0,82,-99.99,,,0.00,0,weatherlink.com 1.10,2013-01-09 23:07:00,
2013-01-09 18:22:00,40.9,36.0,30.11,SW,234,0.0,-999.0,82,-99.99,,,0.00,0,weatherlink.com 1.10,2013-01-09 23:22:00,
2013-01-09 18:37:00,40.9,36.0,30.11,SSW,208,2.0,-999.0,82,-99.99,,,0.00,0,weatherlink.com 1.10,2013-01-09 23:37:00,
2013-01-09 18:52:00,41.4,37.0,30.12,WNW,284,0.0,-999.0,83,-99.99,,,0.00,0,weatherlink.com 1.10,2013-01-09 23:52:00,
2013-01-09 19:07:00,43.4,37.0,30.13,WSW,243,2.0,-999.0,79,-99.99,,,0.00,0,weatherlink.com 1.10,2013-01-10 00:07:00,
2013-01-09 19:22:00,43.7,38.0,30.13,WSW,246,2.0,-999.0,79,-99.99,,,0.00,0,weatherlink.com 1.10,2013-01-10 00:22:00,
2013-01-09 19:37:00,43.4,37.0,30.13,SW,214,0.0,-999.0,79,-99.99,,,0.00,0,weatherlink.com 1.10,2013-01-10 00:37:00,
2013-01-09 19:52:00,42.6,37.0,30.12,SSW,207,1.0,-999.0,80,-99.99,,,0.00,0,weatherlink.com 1.10,2013-01-10 00:52:00,
2013-01-09 20:07:00,43.1,37.0,30.12,WSW,253,1.0,-999.0,79,-99.99,,,0.00,0,weatherlink.com 1.10,2013-01-10 01:07:00,
2013-01-09 20:22:00,42.3,37.0,30.12,SE,144,0.0,-999.0,80,-99.99,,,0.00,0,weatherlink.com 1.10,2013-01-10 01:22:00,
2013-01-09 20:37:00,41.5,36.0,30.12,SSW,192,1.0,-999.0,81,-99.99,,,0.00,0,weatherlink.com 1.10,2013-01-10 01:37:00,
2013-01-09 20:52:00,41.5,36.0,30.12,SSW,200,2.0,-999.0,81,-99.99,,,0.00,0,weatherlink.com 1.10,2013-01-10 01:52:00,
2013-01-09 21:07:00,41.9,37.0,30.12,West,279,1.0,-999.0,81,-99.99,,,0.00,0,weatherlink.com 1.10,2013-01-10 02:07:00,
2013-01-09 21:22:00,43.1,36.0,30.12,West,279,0.0,-999.0,77,-99.99,,,0.00,0,weatherlink.com 1.10,2013-01-10 02:22:00,
2013-01-09 21:37:00,45.1,37.0,30.13,SW,224,2.0,-999.0,72,-99.99,,,0.00,0,weatherlink.com 1.10,2013-01-10 02:37:00,
2013-01-09 21:52:00,46.7,36.0,30.14,WSW,251,5.0,-999.0,67,-99.99,,,0.00,0,weatherlink.com 1.10,2013-01-10 02:52:00,
2013-01-09 22:07:00,46.5,36.0,30.14,WNW,290,3.0,-999.0,66,-99.99,,,0.00,0,weatherlink.com 1.10,2013-01-10 03:07:00,
2013-01-09 22:22:00,46.3,36.0,30.14,WSW,253,1.0,-999.0,67,-99.99,,,0.00,0,weatherlink.com 1.10,2013-01-10 03:22:00,
2013-01-09 22:37:00,45.7,36.0,30.15,NW,324,1.0,-999.0,68,-99.99,,,0.00,0,weatherlink.com 1.10,2013-01-10 03:37:00,
2013-01-09 22:52:00,44.7,35.0,30.15,NW,317,1.0,-999.0,70,-99.99,,,0.00,0,weatherlink.com 1.10,2013-01-10 03:52:00,
2013-01-09 23:07:00,43.8,36.0,30.16,WNW,283,1.0,-999.0,73,-99.99,,,0.00,0,weatherlink.com 1.10,2013-01-10 04:07:00,
2013-01-09 23:22:00,43.2,36.0,30.16,West,271,1.0,-999.0,75,-99.99,,,0.00,0,weatherlink.com 1.10,2013-01-10 04:22:00,
2013-01-09 23:37:00,42.5,35.0,30.16,WNW,292,2.0,-999.0,76,-99.99,,,0.00,0,weatherlink.com 1.10,2013-01-10 04:37:00,
2013-01-09 23:52:00,42.4,35.0,30.16,WNW,303,0.0,-999.0,75,-99.99,,,0.00,0,weatherlink.com 1.10,2013-01-10 04:52:00,